Flight Track Log - Related Links

Times and Time Zones

All times are in EDT time to prevent confusion due to time zone crossing. See the EJA922 flight status page for this flight to view local times or setup timezone preferences in your user account.

Time Position Orientation Groundspeed Altitude Reporting Facility
EDT Latitude Longitude Course Direction KTS MPH feet Rate Location/Type
Mon 09:44:56 AM 41.7833 -87.8167 154° Southeast 225 259 3,000  Level Chicago TRACON
Mon 09:45:38 AM 41.7489 -87.8536 219° Southwest 219 252 3,400 1,176 Climbing Chicago Center
Mon 09:46:38 AM 41.6842 -87.8519 179° South 244 281 5,000 1,512 Climbing Chicago Center
Mon 09:47:41 AM 41.6158 -87.8189 160° South 252 290 6,500 1,248 Climbing Chicago Center
Mon 09:48:43 AM 41.5381 -87.7822 161° South 274 315 7,600 2,032 Climbing Chicago Center
Mon 09:49:45 AM 41.4586 -87.7433 160° South 295 339 10,700 2,419 Climbing Chicago Center
Mon 09:50:00 AM 40.5256 -86.9807 154° Southeast  Level Estimated
Mon 09:50:47 AM 41.3606 -87.7244 172° South 351 404 12,600  Level Chicago Center
Mon 09:51:49 AM 41.2336 -87.7267 181° South 374 430 15,800 2,806 Climbing Chicago Center
Mon 09:52:51 AM 41.1242 -87.7139 175° South 392 451 18,400 2,371 Climbing Chicago Center
Mon 09:53:53 AM 41.0133 -87.7014 175° South 397 457 20,700 2,226 Climbing Chicago Center
Mon 09:54:55 AM 40.8994 -87.6822 173° South 410 472 23,000 2,081 Climbing Chicago Center
Mon 09:55:57 AM 40.7831 -87.6439 166° South 427 491 25,000 2,177 Climbing Chicago Center
Mon 09:56:59 AM 40.6642 -87.6058 166° South 436 502 27,500 2,323 Climbing Chicago Center
Mon 09:58:01 AM 40.5186 -87.5606 167° South 446 513 29,800 2,226 Climbing Chicago Center
Mon 09:59:03 AM 40.3928 -87.5233 167° South 458 527 32,100 2,016 Climbing Chicago Center
Mon 10:00:06 AM 40.2697 -87.4847 167° South 457 526 34,000 1,392 Climbing Chicago Center
Mon 10:01:08 AM 40.1331 -87.4411 166° South 476 548 35,000 566 Climbing Chicago Center
Mon 10:01:52 AM 40.0483 -87.4178 168° South 489 563 35,000 566 Level Indianapolis Center
Mon 10:02:54 AM 39.8883 -87.3358 159° South 517 595 36,000 484 Climbing Indianapolis Center
Mon 10:03:56 AM 39.7603 -87.2475 152° Southeast 525 604 36,000  Level Indianapolis Center
Mon 10:04:58 AM 39.6308 -87.1600 152° Southeast 528 608 36,000  Level Indianapolis Center
Mon 10:06:00 AM 39.5006 -87.0731 153° Southeast 531 611 36,000 968 Level Indianapolis Center
Mon 10:07:02 AM 39.3464 -86.9708 153° Southeast 527 606 38,000 1,790 Climbing Indianapolis Center
Mon 10:08:04 AM 39.2231 -86.8894 153° Southeast 512 589 39,700 968 Climbing Indianapolis Center
Mon 10:09:06 AM 39.0919 -86.8114 155° Southeast 507 583 40,000 145 Climbing Indianapolis Center
Mon 10:10:08 AM 38.9603 -86.7517 161° South 501 577 40,000  Level Indianapolis Center
Mon 10:11:10 AM 38.8286 -86.6906 160° South 499 574 40,000  Level Indianapolis Center
Mon 10:12:12 AM 38.6978 -86.6289 160° South 495 570 40,000 484 Level Indianapolis Center
Mon 10:13:14 AM 38.5675 -86.5700 161° South 492 566 41,000 480 Climbing Indianapolis Center
Mon 10:14:17 AM 38.4356 -86.5081 160° South 496 571 41,000  Level Indianapolis Center
Mon 10:15:19 AM 38.3039 -86.4492 161° South 496 571 41,000  Level Indianapolis Center
Mon 10:16:21 AM 38.1469 -86.3767 160° South 495 570 41,000  Level Indianapolis Center
Mon 10:17:23 AM 38.0158 -86.3161 160° South 496 571 41,000  Level Indianapolis Center
Mon 10:18:25 AM 37.8853 -86.2567 160° South 495 570 41,000  Level Indianapolis Center
Mon 10:19:27 AM 37.7556 -86.1975 160° South 489 563 41,000  Level Indianapolis Center
Mon 10:20:29 AM 37.6231 -86.1389 161° South 498 573 41,000  Level Indianapolis Center
Mon 10:21:31 AM 37.4858 -86.0786 161° South 496 571 41,000  Level Indianapolis Center
Mon 10:22:33 AM 37.3539 -86.0189 160° South 497 572 41,000  Level Indianapolis Center
Mon 10:23:35 AM 37.2217 -85.9594 160° South 498 573 41,000  Level Indianapolis Center
Mon 10:24:37 AM 37.0897 -85.9008 160° South 496 571 41,000  Level Indianapolis Center
Mon 10:25:39 AM 36.9564 -85.8425 161° South 501 577 41,000  Level Indianapolis Center
Mon 10:26:41 AM 36.8008 -85.7733 160° South 502 578 41,000  Level Indianapolis Center
Mon 10:27:43 AM 36.6850 -85.7225 161° South 497 572 41,000  Level Indianapolis Center
Mon 10:28:45 AM 36.5267 -85.6528 161° South 501 577 41,000  Level Indianapolis Center
Mon 10:29:47 AM 36.3942 -85.5947 161° South 505 581 41,000  Level Indianapolis Center
Mon 10:30:49 AM 36.2619 -85.5378 161° South 504 580 41,000  Level Indianapolis Center
Mon 10:31:51 AM 36.1297 -85.4806 161° South 505 581 41,000  Level Indianapolis Center
Mon 10:32:45 AM 35.9983 -85.4272 162° South 503 579 41,000  Level Atlanta Center
Mon 10:33:45 AM 35.8614 -85.3686 161° South 503 579 41,000  Level Atlanta Center
Mon 10:34:45 AM 35.7306 -85.3128 161° South 503 579 41,000  Level Atlanta Center
Mon 10:35:45 AM 35.5956 -85.2544 161° South 503 579 41,000  Level Atlanta Center
Mon 10:36:45 AM 35.4625 -85.1964 160° South 503 579 41,000  Level Atlanta Center
Mon 10:37:45 AM 35.3275 -85.1411 162° South 503 579 41,000  Level Atlanta Center
Mon 10:38:45 AM 35.1944 -85.0833 160° South 503 579 41,000  Level Atlanta Center
Mon 10:39:45 AM 35.0592 -85.0283 162° South 503 579 41,000  Level Atlanta Center
Mon 10:40:45 AM 34.9261 -84.9711 161° South 503 579 41,000  Level Atlanta Center
Mon 10:41:45 AM 34.7889 -84.9139 161° South 508 585 41,000  Level Atlanta Center
Mon 10:42:45 AM 34.6556 -84.8594 161° South 508 585 41,000  Level Atlanta Center
Mon 10:43:45 AM 34.5392 -84.8053 159° South 499 574 41,000  Level Atlanta Center
Mon 10:44:45 AM 34.4058 -84.7514 162° South 512 589 41,000  Level Atlanta Center
Mon 10:45:45 AM 34.2683 -84.6947 161° South 512 589 41,000  Level Atlanta Center
Mon 10:46:45 AM 34.1164 -84.6361 162° South 512 589 41,000  Level Atlanta Center
Mon 10:47:45 AM 33.9789 -84.5825 162° South 522 601 41,000  Level Atlanta Center
Mon 10:48:45 AM 33.8475 -84.5267 161° South 516 594 41,000  Level Atlanta Center
Mon 10:49:45 AM 33.7081 -84.4708 162° South 516 594 41,000  Level Atlanta Center
Mon 10:50:45 AM 33.5850 -84.4203 161° South 516 594 41,000  Level Atlanta Center
Mon 10:51:45 AM 33.4472 -84.3625 161° South 522 601 41,000  Level Atlanta Center
Mon 10:52:45 AM 33.3139 -84.3047 160° South 517 595 41,000  Level Atlanta Center
Mon 10:53:45 AM 33.1742 -84.2472 161° South 524 603 41,000  Level Atlanta Center
Mon 10:54:45 AM 33.0239 -84.1875 162° South 519 597 41,000  Level Atlanta Center
Mon 10:55:45 AM 32.8883 -84.1303 160° South 519 597 41,000  Level Atlanta Center
Mon 10:56:45 AM 32.7506 -84.0708 160° South 519 597 41,000  Level Atlanta Center
Mon 10:57:45 AM 32.6128 -84.0142 161° South 519 597 41,000  Level Atlanta Center
Mon 10:58:45 AM 32.4750 -83.9600 162° South 519 597 41,000  Level Atlanta Center
Mon 10:59:45 AM 32.3539 -83.9111 161° South 519 597 41,000  Level Atlanta Center
Mon 11:01:18 AM 32.1381 -83.8200 160° South 540 621 41,000  Level Jacksonville Center
Mon 11:02:18 AM 32.0028 -83.7647 161° South 535 616 41,000  Level Jacksonville Center
Mon 11:03:18 AM 31.8550 -83.7047 161° South 522 601 41,000 -50 Level Jacksonville Center
Mon 11:04:18 AM 31.7175 -83.6497 161° South 521 600 40,900  Descending Jacksonville Center
Mon 11:05:18 AM 31.5778 -83.5950 162° South 521 600 41,000 50 Climbing Jacksonville Center
Mon 11:06:18 AM 31.4444 -83.5428 162° South 522 601 41,000  Level Jacksonville Center
Mon 11:07:18 AM 31.3111 -83.4908 162° South 517 595 41,000  Level Jacksonville Center
Mon 11:08:18 AM 31.1778 -83.4267 158° South 517 595 41,000  Level Jacksonville Center
Mon 11:09:18 AM 31.0467 -83.3631 157° South 512 589 41,000  Level Jacksonville Center
Mon 11:10:18 AM 30.9194 -83.3042 158° South 512 589 41,000  Level Jacksonville Center
Mon 11:11:18 AM 30.7900 -83.2383 156° South 506 582 41,000 -50 Level Jacksonville Center
Mon 11:12:18 AM 30.6608 -83.1775 158° South 506 582 40,900 -50 Descending Jacksonville Center
Mon 11:13:18 AM 30.5272 -83.1119 157° South 506 582 40,900  Level Jacksonville Center
Mon 11:14:18 AM 30.3958 -83.0514 158° South 512 589 40,900 50 Level Jacksonville Center
Mon 11:15:18 AM 30.2622 -82.9889 158° South 512 589 41,000  Climbing Jacksonville Center
Mon 11:16:18 AM 30.1308 -82.9261 158° South 512 589 40,900 -50 Descending Jacksonville Center
Mon 11:17:18 AM 29.9950 -82.8661 159° South 512 589 40,900  Level Jacksonville Center
Mon 11:18:18 AM 29.8614 -82.8064 159° South 518 596 40,900  Level Jacksonville Center
Mon 11:19:18 AM 29.7300 -82.7442 158° South 518 596 40,900  Level Jacksonville Center
Mon 11:20:18 AM 29.6003 -82.6825 158° South 513 590 40,900 50 Level Jacksonville Center
Mon 11:21:18 AM 29.4939 -82.6300 157° South 513 590 41,000  Climbing Jacksonville Center
Mon 11:22:18 AM 29.3494 -82.5639 158° South 513 590 40,900  Descending Jacksonville Center
Mon 11:23:18 AM 29.2178 -82.5022 158° South 513 590 41,000 50 Climbing Jacksonville Center
Mon 11:24:18 AM 29.0842 -82.4458 160° South 513 590 41,000 -50 Level Jacksonville Center
Mon 11:25:18 AM 28.9506 -82.4253 172° South 503 579 40,900 -50 Descending Jacksonville Center
Mon 11:26:18 AM 28.8169 -82.4067 173° South 489 563 40,900 -50 Level Jacksonville Center
Mon 11:27:18 AM 28.6811 -82.3908 174° South 484 557 40,800 -700 Descending Jacksonville Center
Mon 11:28:18 AM 28.5453 -82.3750 174° South 484 557 39,500 -1,213 Descending Jacksonville Center
Mon 11:30:26 AM 28.2211 -82.3344 174° South 531 611 37,000 -1,309 Descending Miami Center
Mon 11:31:26 AM 28.0800 -82.3156 173° South 526 605 35,400 -1,000 Descending Miami Center
Mon 11:32:26 AM 27.9478 -82.2811 167° South 516 594 35,000 -1,200 Descending Miami Center
Mon 11:33:26 AM 27.8058 -82.2322 163° South 509 586 33,000 -1,900 Descending Miami Center
Mon 11:34:26 AM 27.6636 -82.1808 162° South 519 597 31,200 -1,650 Descending Miami Center
Mon 11:35:26 AM 27.5175 -82.1297 163° South 549 632 29,700 -1,200 Descending Miami Center
Mon 11:36:26 AM 27.3692 -82.0783 163° South 549 632 28,800 -1,150 Descending Miami Center
Mon 11:37:26 AM 27.2411 -82.0353 163° South 549 632 27,400 -2,050 Descending Miami Center
Mon 11:38:26 AM 27.0967 -81.9892 164° South 543 625 24,700 -1,800 Descending Miami Center
Mon 11:39:26 AM 26.9711 -81.9394 161° South 511 588 23,800 -1,300 Descending Miami Center
Mon 11:40:26 AM 26.8594 -81.8553 146° Southeast 481 554 22,100 -1,800 Descending Miami Center
Mon 11:41:26 AM 26.7544 -81.7511 138° Southeast 488 562 20,200 -1,550 Descending Miami Center
Mon 11:42:26 AM 26.7092 -81.6025 109° East 481 554 19,000 -600 Descending Miami Center
Mon 11:43:26 AM 26.7372 -81.4433 79° East 440 506 19,000 -600 Level Miami Center
Mon 11:44:26 AM 26.7642 -81.3142 77° East 452 520 17,800 -1,950 Descending Miami Center
Mon 11:45:26 AM 26.7978 -81.1736 75° East 462 532 15,100 -2,400 Descending Miami Center
Mon 11:46:26 AM 26.8222 -81.0489 78° East 427 491 13,000 -1,900 Descending Miami Center
Mon 11:47:26 AM 26.8317 -80.9375 85° East 383 441 11,300 -1,500 Descending Miami Center
Mon 11:48:26 AM 26.8283 -80.8256 92° East 331 381 10,000 -650 Descending Miami Center
Mon 11:49:26 AM 26.7975 -80.7383 112° Southeast 300 345 10,000 -150 Level Miami Center
Mon 11:50:26 AM 26.7619 -80.6536 115° Southeast 301 346 9,700 -850 Descending Miami Center
Mon 11:51:26 AM 26.7347 -80.5758 111° Southeast 296 341 8,300 -1,550 Descending Miami Center
Mon 11:52:26 AM 26.6994 -80.4842 113° Southeast 296 341 6,600 -1,450 Descending Miami Center
Mon 11:53:26 AM 26.6950 -80.4167 94° East 262 302 5,400 -1,250 Descending Miami Center
Mon 11:54:26 AM 26.6906 -80.3397 94° East 227 261 4,100 -1,150 Descending Miami Center
Mon 11:55:26 AM 26.6878 -80.2817 93° East 215 247 3,100 -1,000 Descending Miami Center
Mon 11:57:00 AM 26.6432 -80.1146 50° Northeast  Level FlightAware Approximate
Mon 12:04:00 PM 26.6667 -80.0833 50° Northeast  Level FlightAware Approximate
Mon 12:05:00 PM 26.6832 -80.0956 50° Northeast  Level Estimated
Mon 12:06:00 PM 26.6832 -80.0956 50° Northeast  Level Estimated
Mon 12:07:00 PM 26.6832 -80.0956 50° Northeast  Level Estimated

Login

Don't have an account? Register now (free) for customized features, flight alerts, and more!